createdAt,value
2019-03-02T00:01:48.718Z,15.01
2019-03-02T00:04:15.372Z,14.95
2019-03-02T00:06:42.493Z,14.95
2019-03-02T00:09:09.877Z,14.92
2019-03-02T00:11:36.845Z,14.90
2019-03-02T00:14:03.856Z,14.94
2019-03-02T00:16:31.185Z,15.03
2019-03-02T00:18:58.438Z,15.07
2019-03-02T00:21:27.688Z,15.11
2019-03-02T00:23:55.279Z,15.13
2019-03-02T00:26:24.293Z,15.14
2019-03-02T00:28:51.575Z,15.14
2019-03-02T00:31:19.034Z,15.14
2019-03-02T00:33:46.308Z,15.14
2019-03-02T00:36:16.033Z,15.14
2019-03-02T00:38:43.472Z,15.10
2019-03-02T00:41:10.741Z,15.12
2019-03-02T00:43:37.758Z,15.13
2019-03-02T00:46:05.591Z,15.18
2019-03-02T00:48:32.573Z,15.08
2019-03-02T00:50:59.528Z,15.02
2019-03-02T00:53:26.813Z,15.07
2019-03-02T00:55:54.026Z,15.12
2019-03-02T00:58:20.943Z,15.11
2019-03-02T01:00:50.032Z,15.07
2019-03-02T01:03:16.924Z,15.12
2019-03-02T01:05:43.896Z,15.15
2019-03-02T01:08:11.085Z,15.15
2019-03-02T01:10:37.984Z,15.15
2019-03-02T01:13:04.914Z,15.15
2019-03-02T01:15:31.890Z,15.16
2019-03-02T01:17:58.863Z,15.15
2019-03-02T01:20:28.679Z,15.15
2019-03-02T01:22:54.958Z,15.16
2019-03-02T01:25:22.908Z,15.20
2019-03-02T01:27:49.844Z,15.21
2019-03-02T01:30:18.446Z,15.19
2019-03-02T01:32:48.830Z,15.15
2019-03-02T01:35:16.561Z,15.12
2019-03-02T01:37:43.921Z,15.09
2019-03-02T01:40:13.521Z,15.04
2019-03-02T01:42:40.526Z,15.05
2019-03-02T01:45:07.506Z,15.06
2019-03-02T01:47:34.455Z,15.06
2019-03-02T01:50:01.752Z,15.06
2019-03-02T01:52:30.609Z,15.08
2019-03-02T01:54:57.336Z,15.06
2019-03-02T01:57:24.616Z,15.05
2019-03-02T01:59:51.550Z,15.04
2019-03-02T02:02:18.481Z,15.04
2019-03-02T02:04:45.652Z,15.04
2019-03-02T02:07:14.403Z,15.05
2019-03-02T02:09:41.565Z,15.04
2019-03-02T02:12:09.855Z,15.00
2019-03-02T02:14:36.824Z,14.99
2019-03-02T02:17:03.765Z,14.98
2019-03-02T02:19:31.114Z,14.98
2019-03-02T02:22:02.140Z,15.01
2019-03-02T02:24:28.271Z,14.97
2019-03-02T02:26:55.292Z,14.94
2019-03-02T02:29:22.264Z,14.94
2019-03-02T02:31:49.200Z,14.94
2019-03-02T02:34:21.685Z,14.89
2019-03-02T02:36:44.971Z,14.86
2019-03-02T02:39:11.945Z,14.85
2019-03-02T02:41:39.202Z,14.87
2019-03-02T02:44:06.487Z,14.90
2019-03-02T02:46:34.492Z,14.84
2019-03-02T02:49:05.604Z,14.79
2019-03-02T02:51:30.491Z,14.77
2019-03-02T02:53:57.490Z,14.77
2019-03-02T02:56:24.448Z,14.79
2019-03-02T02:58:55.619Z,14.82
2019-03-02T03:01:20.387Z,14.84
2019-03-02T03:03:47.361Z,14.83
2019-03-02T03:06:14.280Z,14.83
2019-03-02T03:08:41.635Z,14.84
2019-03-02T03:11:08.679Z,14.83
2019-03-02T03:13:35.983Z,14.86
2019-03-02T03:16:04.227Z,14.91
2019-03-02T03:18:31.206Z,14.91
2019-03-02T03:20:58.109Z,14.88
2019-03-02T03:23:26.422Z,14.87
2019-03-02T03:25:57.047Z,14.86
2019-03-02T03:28:25.980Z,14.81
2019-03-02T03:30:50.984Z,14.81
2019-03-02T03:33:17.933Z,14.84
2019-03-02T03:35:44.898Z,14.87
2019-03-02T03:38:11.877Z,14.86
2019-03-02T03:40:38.826Z,14.90
2019-03-02T03:43:05.730Z,14.88
2019-03-02T03:45:32.742Z,14.89
2019-03-02T03:47:59.730Z,14.89
2019-03-02T03:50:26.700Z,14.88
2019-03-02T03:52:53.988Z,14.89
2019-03-02T03:55:24.898Z,14.91
2019-03-02T03:57:49.596Z,14.92
2019-03-02T04:00:16.507Z,14.90
2019-03-02T04:02:43.882Z,14.92
2019-03-02T04:05:10.829Z,14.90
2019-03-02T04:07:37.842Z,14.92
2019-03-02T04:10:04.851Z,14.92
2019-03-02T04:12:31.805Z,14.89
2019-03-02T04:15:01.456Z,14.90
2019-03-02T04:17:27.368Z,14.91
2019-03-02T04:19:54.329Z,14.88
2019-03-02T04:22:21.759Z,14.87
2019-03-02T04:24:48.745Z,14.91
2019-03-02T04:27:17.202Z,14.95
2019-03-02T04:29:49.826Z,14.92
2019-03-02T04:32:13.832Z,14.89
2019-03-02T04:34:42.059Z,14.86
2019-03-02T04:37:09.375Z,14.83
2019-03-02T04:39:36.390Z,14.81
2019-03-02T04:42:03.394Z,14.79
2019-03-02T04:44:33.162Z,14.81
2019-03-02T04:47:00.121Z,14.82
2019-03-02T04:49:27.489Z,14.80
2019-03-02T04:51:54.504Z,14.84
2019-03-02T04:54:22.770Z,14.80
2019-03-02T04:56:50.050Z,14.83
2019-03-02T04:59:18.608Z,14.83
2019-03-02T05:01:46.326Z,14.84
2019-03-02T05:04:13.761Z,14.81
2019-03-02T05:06:41.101Z,14.80
2019-03-02T05:09:08.049Z,14.81
2019-03-02T05:11:35.456Z,14.82
2019-03-02T05:14:04.294Z,14.81
2019-03-02T05:16:32.477Z,14.79
2019-03-02T05:18:59.841Z,14.77
2019-03-02T05:21:35.033Z,14.77
2019-03-02T05:24:03.374Z,14.76
2019-03-02T05:26:31.321Z,14.70
2019-03-02T05:28:58.718Z,14.70
2019-03-02T05:31:25.998Z,14.74
2019-03-02T05:33:52.944Z,14.71
2019-03-02T05:36:23.025Z,14.70
2019-03-02T05:38:48.494Z,14.72
2019-03-02T05:41:15.495Z,14.71
2019-03-02T05:43:42.866Z,14.72
2019-03-02T05:46:09.850Z,14.73
2019-03-02T05:48:42.867Z,14.75
2019-03-02T05:51:08.117Z,14.75
2019-03-02T05:53:35.102Z,14.74
2019-03-02T05:56:02.709Z,14.73
2019-03-02T05:58:29.701Z,14.74
2019-03-02T06:00:56.680Z,14.75
2019-03-02T06:03:25.970Z,14.74
2019-03-02T06:05:54.349Z,14.74
2019-03-02T06:08:21.740Z,14.75
2019-03-02T06:10:49.165Z,14.77
2019-03-02T06:13:16.145Z,14.77
2019-03-02T06:15:46.336Z,14.76
2019-03-02T06:18:11.793Z,14.76
2019-03-02T06:20:38.789Z,14.74
2019-03-02T06:23:05.765Z,14.73
2019-03-02T06:25:32.812Z,14.72
2019-03-02T06:28:00.103Z,14.73
2019-03-02T06:30:27.349Z,14.75
2019-03-02T06:32:54.740Z,14.79
2019-03-02T06:35:24.196Z,14.79
2019-03-02T06:37:52.991Z,14.79
2019-03-02T06:40:23.533Z,14.78
2019-03-02T06:42:48.774Z,14.79
2019-03-02T06:45:16.223Z,14.81
2019-03-02T06:47:43.489Z,14.80
2019-03-02T06:50:12.169Z,14.82
2019-03-02T06:52:39.114Z,14.78
2019-03-02T06:55:06.072Z,14.73
2019-03-02T06:57:33.042Z,14.73
2019-03-02T07:00:00.364Z,14.69
2019-03-02T07:02:27.298Z,14.73
2019-03-02T07:04:57.794Z,14.27
2019-03-02T07:07:22.976Z,14.75
2019-03-02T07:09:49.915Z,14.76
2019-03-02T07:12:16.831Z,14.79
2019-03-02T07:14:44.185Z,14.83
2019-03-02T07:17:11.543Z,14.85
2019-03-02T07:19:38.523Z,14.84
2019-03-02T07:22:05.510Z,14.85
2019-03-02T07:24:32.781Z,14.88
2019-03-02T07:27:00.176Z,14.91
2019-03-02T07:29:27.099Z,14.91
2019-03-02T07:31:54.392Z,14.94
2019-03-02T07:34:21.734Z,14.95
2019-03-02T07:36:48.829Z,15.00
2019-03-02T07:39:15.779Z,15.04
2019-03-02T07:41:43.034Z,15.04
2019-03-02T07:44:10.405Z,15.00
2019-03-02T07:46:37.444Z,15.02
2019-03-02T07:49:04.827Z,15.02
2019-03-02T07:51:31.851Z,15.03
2019-03-02T07:54:02.167Z,15.07
2019-03-02T07:56:29.584Z,15.08
2019-03-02T07:58:59.172Z,15.09
2019-03-02T08:01:26.309Z,15.09
2019-03-02T08:03:55.940Z,15.12
2019-03-02T08:06:25.623Z,15.14
2019-03-02T08:08:51.093Z,15.16
2019-03-02T08:11:19.793Z,15.18
2019-03-02T08:13:46.879Z,15.20
2019-03-02T08:16:15.645Z,15.21
2019-03-02T08:18:42.733Z,15.18
2019-03-02T08:21:09.917Z,15.19
2019-03-02T08:23:37.186Z,15.25
2019-03-02T08:26:04.727Z,15.31
2019-03-02T08:28:32.198Z,15.30
2019-03-02T08:30:59.386Z,15.33
2019-03-02T08:33:26.431Z,15.34
2019-03-02T08:35:53.558Z,15.34
2019-03-02T08:38:20.553Z,15.34
2019-03-02T08:40:47.619Z,15.35
2019-03-02T08:43:16.476Z,15.36
2019-03-02T08:45:43.305Z,15.40
2019-03-02T08:48:10.291Z,15.41
2019-03-02T08:50:37.316Z,15.44
2019-03-02T08:53:04.333Z,15.46
2019-03-02T08:55:33.590Z,15.47
2019-03-02T08:58:00.301Z,15.50
2019-03-02T09:00:28.335Z,15.44
2019-03-02T09:03:00.430Z,15.40
2019-03-02T09:05:45.880Z,15.41
2019-03-02T09:07:56.175Z,15.44
2019-03-02T09:10:23.736Z,15.50
2019-03-02T09:12:57.969Z,15.53
2019-03-02T09:15:26.267Z,15.54
2019-03-02T09:17:54.222Z,15.59
2019-03-02T09:20:20.542Z,15.62
2019-03-02T09:22:47.765Z,15.59
2019-03-02T09:25:15.338Z,15.56
2019-03-02T09:27:42.308Z,15.59
2019-03-02T09:30:09.332Z,15.62
2019-03-02T09:32:36.444Z,15.62
2019-03-02T09:35:03.431Z,15.65
2019-03-02T09:37:30.722Z,15.67
2019-03-02T09:39:58.944Z,15.67
2019-03-02T09:42:28.934Z,15.65
2019-03-02T09:44:55.975Z,15.67
2019-03-02T09:47:23.286Z,15.68
2019-03-02T09:49:50.259Z,15.68
2019-03-02T09:52:17.270Z,15.71
2019-03-02T09:54:44.613Z,15.60
2019-03-02T09:57:11.623Z,15.48
2019-03-02T09:59:42.018Z,15.44
2019-03-02T10:02:10.587Z,15.51
2019-03-02T10:04:39.450Z,15.58
2019-03-02T10:07:08.798Z,15.68
2019-03-02T10:09:37.766Z,15.77
2019-03-02T10:12:09.991Z,15.85
2019-03-02T10:14:39.865Z,15.85
2019-03-02T10:17:06.838Z,15.92
2019-03-02T10:19:34.529Z,15.97
2019-03-02T10:22:01.483Z,15.94
2019-03-02T10:24:28.512Z,15.96
2019-03-02T10:26:55.471Z,15.97
2019-03-02T10:29:22.683Z,15.96
2019-03-02T10:31:50.738Z,15.93
2019-03-02T10:34:17.723Z,15.86
2019-03-02T10:36:44.938Z,15.74
2019-03-02T10:39:12.080Z,15.79
2019-03-02T10:41:39.777Z,15.85
2019-03-02T10:44:06.757Z,15.91
2019-03-02T10:46:33.706Z,15.96
2019-03-02T10:49:00.609Z,15.99
2019-03-02T10:51:27.947Z,16.04
2019-03-02T10:53:55.850Z,15.96
2019-03-02T10:56:24.720Z,15.94
2019-03-02T10:58:52.118Z,15.95
2019-03-02T11:01:19.424Z,15.99
2019-03-02T11:03:46.720Z,15.98
2019-03-02T11:06:14.120Z,15.99
2019-03-02T11:08:41.453Z,15.99
2019-03-02T11:11:08.414Z,15.97
2019-03-02T11:13:35.400Z,15.88
2019-03-02T11:16:02.698Z,15.77
2019-03-02T11:18:30.903Z,15.69
2019-03-02T11:21:00.077Z,15.63
2019-03-02T11:23:27.174Z,15.60
2019-03-02T11:25:55.789Z,15.59
2019-03-02T11:30:57.839Z,15.76
2019-03-02T11:33:27.533Z,15.77
2019-03-02T11:35:58.256Z,15.82
2019-03-02T11:38:25.202Z,15.85
2019-03-02T11:40:52.475Z,15.86
2019-03-02T11:43:19.531Z,15.76
2019-03-02T11:45:50.239Z,15.77
2019-03-02T11:48:19.580Z,15.78
2019-03-02T11:50:52.458Z,15.71
2019-03-02T11:53:23.867Z,15.63
2019-03-02T11:55:50.119Z,15.66
2019-03-02T11:58:17.587Z,15.71
2019-03-02T12:00:44.957Z,15.75
2019-03-02T12:03:11.945Z,15.77
2019-03-02T12:05:40.376Z,15.82
2019-03-02T12:08:07.454Z,15.82
2019-03-02T12:10:34.912Z,15.82
2019-03-02T12:13:03.701Z,15.81
2019-03-02T12:15:30.906Z,15.83
2019-03-02T12:17:57.903Z,15.85
2019-03-02T12:20:24.941Z,15.86
2019-03-02T12:22:52.789Z,15.85
2019-03-02T12:25:19.745Z,15.87
2019-03-02T12:27:46.723Z,15.90
2019-03-02T12:30:13.802Z,15.94
2019-03-02T12:32:44.305Z,15.93
2019-03-02T12:35:09.640Z,15.91
2019-03-02T12:37:37.369Z,15.94
2019-03-02T12:40:20.902Z,15.96
2019-03-02T12:42:48.025Z,15.98
2019-03-02T12:45:15.143Z,15.99
2019-03-02T12:50:18.906Z,16.03
2019-03-02T13:07:39.565Z,15.97
2019-03-02T13:10:06.534Z,15.94
2019-03-02T13:12:33.745Z,16.00
2019-03-02T13:15:00.725Z,16.05
2019-03-02T13:17:27.998Z,16.08
2019-03-02T13:19:55.004Z,16.15
2019-03-02T13:22:21.994Z,16.09
2019-03-02T13:24:48.951Z,16.13
2019-03-02T13:27:16.114Z,16.15
2019-03-02T13:29:43.097Z,16.16
2019-03-02T13:32:10.143Z,16.16
2019-03-02T13:34:37.101Z,16.18
2019-03-02T13:37:04.313Z,16.17
2019-03-02T13:39:31.739Z,16.19
2019-03-02T13:41:58.747Z,16.17
2019-03-02T13:44:25.956Z,16.19
2019-03-02T13:46:52.970Z,16.22
2019-03-02T13:49:20.247Z,16.24
2019-03-02T13:51:47.295Z,16.24
2019-03-02T13:54:14.601Z,16.25
2019-03-02T13:56:42.900Z,16.25
2019-03-02T13:59:09.895Z,16.26
2019-03-02T14:01:36.893Z,16.19
2019-03-02T14:04:03.831Z,16.19
2019-03-02T14:06:30.717Z,16.15
2019-03-02T14:08:57.913Z,16.14
2019-03-02T14:11:25.210Z,16.17
2019-03-02T14:13:53.354Z,16.19
2019-03-02T14:16:20.263Z,16.19
2019-03-02T14:18:47.314Z,16.22
2019-03-02T14:21:15.901Z,16.20
2019-03-02T14:23:43.317Z,16.19
2019-03-02T14:26:10.289Z,16.20
2019-03-02T14:28:38.302Z,16.22
2019-03-02T14:31:05.547Z,16.21
2019-03-02T14:33:33.004Z,16.20
2019-03-02T14:36:00.264Z,16.20
2019-03-02T14:38:27.759Z,16.20
2019-03-02T14:40:57.691Z,16.24
2019-03-02T14:43:24.698Z,16.28
2019-03-02T14:45:51.742Z,16.31
2019-03-02T14:48:19.205Z,16.34
2019-03-02T14:50:46.117Z,16.33
2019-03-02T14:53:13.009Z,16.32
2019-03-02T14:55:40.331Z,16.31
2019-03-02T14:58:07.885Z,16.28
2019-03-02T15:00:35.422Z,16.30
2019-03-02T15:03:02.636Z,16.31
2019-03-02T15:05:29.649Z,16.29
2019-03-02T15:07:58.954Z,16.29
2019-03-02T15:10:26.840Z,16.30
2019-03-02T15:12:54.210Z,16.29
2019-03-02T15:15:21.211Z,16.24
2019-03-02T15:17:50.671Z,16.25
2019-03-02T15:20:18.061Z,16.26
2019-03-02T15:22:45.024Z,16.26
2019-03-02T15:25:11.907Z,16.25
2019-03-02T15:27:38.914Z,16.27
2019-03-02T15:30:06.173Z,16.31
2019-03-02T15:32:34.094Z,16.28
2019-03-02T15:35:01.065Z,16.20
2019-03-02T15:37:41.988Z,16.17
2019-03-02T15:40:09.294Z,16.12
2019-03-02T15:42:36.989Z,16.13
2019-03-02T15:45:03.964Z,16.18
2019-03-02T15:47:30.969Z,16.16
2019-03-02T15:49:57.998Z,16.15
2019-03-02T15:52:25.288Z,16.16
2019-03-02T15:54:52.174Z,16.13
2019-03-02T15:57:19.048Z,16.12
2019-03-02T15:59:46.367Z,16.15
2019-03-02T16:02:13.336Z,16.13
2019-03-02T16:04:40.564Z,16.14
2019-03-02T16:07:07.566Z,16.10
2019-03-02T16:09:35.525Z,16.10
2019-03-02T16:12:04.067Z,16.09
2019-03-02T16:14:32.769Z,16.10
2019-03-02T16:17:03.621Z,16.11
2019-03-02T16:19:30.288Z,16.13
2019-03-02T16:21:58.628Z,16.15
2019-03-02T16:24:25.648Z,16.16
2019-03-02T16:26:54.075Z,16.19
2019-03-02T16:29:21.182Z,16.15
2019-03-02T16:31:49.030Z,16.15
2019-03-02T16:34:15.978Z,16.17
2019-03-02T16:36:43.150Z,16.15
2019-03-02T16:39:10.528Z,16.14
2019-03-02T16:41:37.862Z,16.14
2019-03-02T16:44:04.805Z,16.16
2019-03-02T16:46:34.986Z,16.17
2019-03-02T16:49:01.059Z,16.20
2019-03-02T16:51:30.502Z,16.20
2019-03-02T16:53:58.623Z,16.13
2019-03-02T16:56:26.740Z,16.08
2019-03-02T16:58:56.804Z,16.05
2019-03-02T17:01:24.823Z,16.01
2019-03-02T17:03:52.102Z,16.04
2019-03-02T17:06:19.087Z,16.02
2019-03-02T17:08:46.651Z,16.01
2019-03-02T17:11:13.882Z,16.02
2019-03-02T17:13:40.963Z,16.06
2019-03-02T17:16:08.000Z,16.09
2019-03-02T17:18:35.476Z,16.17
2019-03-02T17:21:02.815Z,16.17
2019-03-02T17:23:29.823Z,16.14
2019-03-02T17:25:59.709Z,16.12
2019-03-02T17:28:26.724Z,16.13
2019-03-02T17:30:53.767Z,16.11
2019-03-02T17:33:22.579Z,16.11
2019-03-02T17:35:49.912Z,16.08
2019-03-02T17:38:18.533Z,16.05
2019-03-02T17:40:46.682Z,16.02
2019-03-02T17:43:13.775Z,16.06
2019-03-02T17:45:43.666Z,16.10
2019-03-02T17:48:10.907Z,16.12
2019-03-02T17:50:40.428Z,16.17
2019-03-02T17:53:08.799Z,16.16
2019-03-02T17:55:35.804Z,16.16
2019-03-02T17:58:03.075Z,16.16
2019-03-02T18:00:30.022Z,16.19
2019-03-02T18:02:57.465Z,16.21
2019-03-02T18:05:26.196Z,16.20
2019-03-02T18:07:53.177Z,16.19
2019-03-02T18:10:20.466Z,16.19
2019-03-02T18:12:47.805Z,16.23
2019-03-02T18:15:14.797Z,16.26
2019-03-02T18:17:42.112Z,16.32
2019-03-02T18:20:09.596Z,16.34
2019-03-02T18:22:36.919Z,16.30
2019-03-02T18:25:07.904Z,16.30
2019-03-02T18:27:37.144Z,16.31
2019-03-02T18:30:05.939Z,16.33
2019-03-02T18:32:34.189Z,16.32
2019-03-02T18:35:02.669Z,16.33
2019-03-02T18:37:30.835Z,16.34
2019-03-02T18:40:02.570Z,16.35
2019-03-02T18:42:30.820Z,16.36
2019-03-02T18:45:00.599Z,16.36
2019-03-02T18:47:30.054Z,16.36
2019-03-02T18:49:56.071Z,16.37
2019-03-02T18:52:23.015Z,16.38
2019-03-02T18:54:50.678Z,16.42
2019-03-02T18:57:18.007Z,16.45
2019-03-02T18:59:46.706Z,16.49
2019-03-02T19:02:13.479Z,16.51
2019-03-02T19:04:40.777Z,16.50
2019-03-02T19:07:07.742Z,16.51
2019-03-02T19:09:34.657Z,16.48
2019-03-02T19:12:01.854Z,16.49
2019-03-02T19:14:30.263Z,16.50
2019-03-02T19:16:57.784Z,16.49
2019-03-02T19:19:25.374Z,16.44
2019-03-02T19:21:52.326Z,16.43
2019-03-02T19:24:20.633Z,16.43
2019-03-02T19:26:47.613Z,16.43
2019-03-02T19:29:15.667Z,16.46
2019-03-02T19:31:42.670Z,16.49
2019-03-02T19:34:09.991Z,16.50
2019-03-02T19:36:37.008Z,16.52
2019-03-02T19:39:03.892Z,16.55
2019-03-02T19:41:32.486Z,16.58
2019-03-02T19:43:59.736Z,16.58
2019-03-02T19:46:26.696Z,16.57
2019-03-02T19:48:54.123Z,16.54
2019-03-02T19:51:21.358Z,16.49
2019-03-02T19:53:48.625Z,16.49
2019-03-02T19:56:16.114Z,16.50
2019-03-02T19:58:43.054Z,16.51
2019-03-02T20:01:10.453Z,16.49
2019-03-02T20:03:37.497Z,16.48
2019-03-02T20:06:04.808Z,16.47
2019-03-02T20:08:32.221Z,16.47
2019-03-02T20:10:59.517Z,16.49
2019-03-02T20:13:26.833Z,16.46
2019-03-02T20:15:53.806Z,16.49
2019-03-02T20:18:20.809Z,16.48
2019-03-02T20:20:47.828Z,16.49
2019-03-02T20:23:14.762Z,16.49
2019-03-02T20:25:41.742Z,16.52
2019-03-02T20:28:08.736Z,16.54
2019-03-02T20:30:36.155Z,16.53
2019-03-02T20:33:03.077Z,16.55
2019-03-02T20:35:30.311Z,16.55
2019-03-02T20:37:57.326Z,16.55
2019-03-02T20:40:25.449Z,16.58
2019-03-02T20:42:52.499Z,16.57
2019-03-02T20:45:20.584Z,16.57
2019-03-02T20:47:47.560Z,16.59
2019-03-02T20:50:14.535Z,16.61
2019-03-02T20:52:41.520Z,16.65
2019-03-02T20:55:09.703Z,16.67
2019-03-02T20:57:37.741Z,16.67
2019-03-02T21:00:05.024Z,16.70
2019-03-02T21:02:32.846Z,16.72
2019-03-02T21:04:59.908Z,16.74
2019-03-02T21:07:26.824Z,16.75
2019-03-02T21:09:54.204Z,16.77
2019-03-02T21:12:21.389Z,16.76
2019-03-02T21:14:48.440Z,16.77
2019-03-02T21:17:15.470Z,16.74
2019-03-02T21:19:42.463Z,16.71
2019-03-02T21:22:09.604Z,16.71
2019-03-02T21:24:36.585Z,16.71
2019-03-02T21:27:03.923Z,16.71
2019-03-02T21:29:30.925Z,16.72
2019-03-02T21:31:58.765Z,16.70
2019-03-02T21:34:25.955Z,16.71
2019-03-02T21:36:53.207Z,16.75
2019-03-02T21:39:20.618Z,16.71
2019-03-02T21:41:47.968Z,16.70
2019-03-02T21:44:14.921Z,16.69
2019-03-02T21:46:42.077Z,16.68
2019-03-02T21:49:09.050Z,16.70
2019-03-02T21:51:36.348Z,16.73
2019-03-02T21:54:04.593Z,16.76
2019-03-02T21:56:31.874Z,16.73
2019-03-02T21:59:00.681Z,16.72
2019-03-02T22:01:29.254Z,16.69
2019-03-02T22:03:56.317Z,16.71
2019-03-02T22:06:23.309Z,16.86
2019-03-02T22:08:50.362Z,17.05
2019-03-02T22:11:17.335Z,17.21
2019-03-02T22:13:44.695Z,17.25
2019-03-02T22:16:11.567Z,17.29
2019-03-02T22:18:38.897Z,17.35
2019-03-02T22:21:05.874Z,17.41
2019-03-02T22:23:33.189Z,17.44
2019-03-02T22:26:00.348Z,17.46
2019-03-02T22:28:27.361Z,17.48
2019-03-02T22:30:54.259Z,17.51
2019-03-02T22:33:21.201Z,17.55
2019-03-02T22:35:48.199Z,17.47
2019-03-02T22:38:18.111Z,17.29
2019-03-02T22:40:45.286Z,17.15
2019-03-02T22:43:12.243Z,17.04
2019-03-02T22:45:39.481Z,16.98
2019-03-02T22:48:06.860Z,17.01
2019-03-02T22:50:33.891Z,16.98
2019-03-02T22:53:01.386Z,16.99
2019-03-02T22:55:28.343Z,16.97
2019-03-02T22:57:55.270Z,16.97
2019-03-02T23:00:22.501Z,16.94
2019-03-02T23:02:51.024Z,16.92
2019-03-02T23:05:17.967Z,16.82
2019-03-02T23:07:45.934Z,16.78
2019-03-02T23:10:12.816Z,16.76
2019-03-02T23:12:39.989Z,16.71
2019-03-02T23:15:10.062Z,16.66
2019-03-02T23:17:37.090Z,16.65
2019-03-02T23:20:04.414Z,16.64
2019-03-02T23:22:31.577Z,16.65
2019-03-02T23:24:58.811Z,16.67
2019-03-02T23:27:26.065Z,16.68
2019-03-02T23:29:53.327Z,16.71
2019-03-02T23:32:20.598Z,16.73
2019-03-02T23:34:47.939Z,16.76
2019-03-02T23:37:15.179Z,16.83
2019-03-02T23:39:42.426Z,16.87
2019-03-02T23:42:10.721Z,16.92
2019-03-02T23:44:37.968Z,16.94
2019-03-02T23:47:05.213Z,16.98
2019-03-02T23:49:32.104Z,16.99
2019-03-02T23:51:59.065Z,17.00
2019-03-02T23:54:26.053Z,16.96
2019-03-02T23:56:53.020Z,16.93
2019-03-02T23:59:19.984Z,16.95
